sensor_id;sensor_type;location;lat;lon;timestamp;P1;durP1;ratioP1;P2;durP2;ratioP2
10880;SDS011;5493;48.884;8.338;2023-09-12T00:00:03;7.72;;;5.22;;
10880;SDS011;5493;48.884;8.338;2023-09-12T00:02:32;5.15;;;4.40;;
10880;SDS011;5493;48.884;8.338;2023-09-12T00:04:58;6.55;;;4.88;;
10880;SDS011;5493;48.884;8.338;2023-09-12T00:07:25;6.20;;;4.45;;
10880;SDS011;5493;48.884;8.338;2023-09-12T00:09:51;6.05;;;4.70;;
10880;SDS011;5493;48.884;8.338;2023-09-12T00:12:21;5.53;;;4.38;;
10880;SDS011;5493;48.884;8.338;2023-09-12T00:14:49;5.00;;;4.20;;
10880;SDS011;5493;48.884;8.338;2023-09-12T00:17:16;9.40;;;4.32;;
10880;SDS011;5493;48.884;8.338;2023-09-12T00:19:44;4.90;;;3.97;;
10880;SDS011;5493;48.884;8.338;2023-09-12T00:22:10;7.80;;;4.50;;
10880;SDS011;5493;48.884;8.338;2023-09-12T00:24:37;6.95;;;4.20;;
10880;SDS011;5493;48.884;8.338;2023-09-12T00:27:04;6.90;;;4.38;;
10880;SDS011;5493;48.884;8.338;2023-09-12T00:29:30;5.88;;;4.15;;
10880;SDS011;5493;48.884;8.338;2023-09-12T00:31:57;8.95;;;4.93;;
10880;SDS011;5493;48.884;8.338;2023-09-12T00:34:23;5.90;;;4.15;;
10880;SDS011;5493;48.884;8.338;2023-09-12T00:36:51;8.95;;;4.47;;
10880;SDS011;5493;48.884;8.338;2023-09-12T00:39:18;8.90;;;4.63;;
10880;SDS011;5493;48.884;8.338;2023-09-12T00:41:44;8.07;;;4.45;;
10880;SDS011;5493;48.884;8.338;2023-09-12T00:44:11;6.47;;;4.40;;
10880;SDS011;5493;48.884;8.338;2023-09-12T00:46:37;5.53;;;4.47;;
10880;SDS011;5493;48.884;8.338;2023-09-12T00:49:05;7.22;;;4.50;;
10880;SDS011;5493;48.884;8.338;2023-09-12T00:51:33;7.85;;;4.25;;
10880;SDS011;5493;48.884;8.338;2023-09-12T00:54:02;5.78;;;4.38;;
10880;SDS011;5493;48.884;8.338;2023-09-12T00:56:29;5.22;;;4.32;;
10880;SDS011;5493;48.884;8.338;2023-09-12T00:58:55;8.32;;;4.78;;
10880;SDS011;5493;48.884;8.338;2023-09-12T01:01:23;8.32;;;4.75;;
10880;SDS011;5493;48.884;8.338;2023-09-12T01:03:50;7.43;;;4.80;;
10880;SDS011;5493;48.884;8.338;2023-09-12T01:06:16;6.43;;;4.90;;
10880;SDS011;5493;48.884;8.338;2023-09-12T01:08:45;7.70;;;4.65;;
10880;SDS011;5493;48.884;8.338;2023-09-12T01:11:14;8.82;;;4.88;;
10880;SDS011;5493;48.884;8.338;2023-09-12T01:13:41;7.03;;;4.53;;
10880;SDS011;5493;48.884;8.338;2023-09-12T01:16:07;6.70;;;4.50;;
10880;SDS011;5493;48.884;8.338;2023-09-12T01:18:34;9.70;;;5.28;;
10880;SDS011;5493;48.884;8.338;2023-09-12T01:21:07;8.73;;;4.82;;
10880;SDS011;5493;48.884;8.338;2023-09-12T01:23:47;6.85;;;4.65;;
10880;SDS011;5493;48.884;8.338;2023-09-12T01:26:37;8.27;;;4.47;;
10880;SDS011;5493;48.884;8.338;2023-09-12T01:29:15;8.63;;;4.55;;
10880;SDS011;5493;48.884;8.338;2023-09-12T01:31:42;8.98;;;4.97;;
10880;SDS011;5493;48.884;8.338;2023-09-12T01:34:10;8.00;;;4.75;;
10880;SDS011;5493;48.884;8.338;2023-09-12T01:36:39;9.35;;;5.15;;
10880;SDS011;5493;48.884;8.338;2023-09-12T01:39:05;5.50;;;4.57;;
10880;SDS011;5493;48.884;8.338;2023-09-12T01:41:34;6.35;;;4.53;;
10880;SDS011;5493;48.884;8.338;2023-09-12T01:44:04;6.18;;;4.35;;
10880;SDS011;5493;48.884;8.338;2023-09-12T01:46:36;6.78;;;4.82;;
10880;SDS011;5493;48.884;8.338;2023-09-12T01:49:04;8.05;;;4.88;;
10880;SDS011;5493;48.884;8.338;2023-09-12T01:51:31;8.68;;;4.97;;
10880;SDS011;5493;48.884;8.338;2023-09-12T01:53:59;5.95;;;4.38;;
10880;SDS011;5493;48.884;8.338;2023-09-12T01:56:26;6.43;;;4.70;;
10880;SDS011;5493;48.884;8.338;2023-09-12T01:58:54;6.20;;;4.30;;
10880;SDS011;5493;48.884;8.338;2023-09-12T02:01:20;8.25;;;5.07;;
10880;SDS011;5493;48.884;8.338;2023-09-12T02:03:48;8.15;;;4.93;;
10880;SDS011;5493;48.884;8.338;2023-09-12T02:06:15;6.97;;;5.03;;
10880;SDS011;5493;48.884;8.338;2023-09-12T02:08:41;8.55;;;4.45;;
10880;SDS011;5493;48.884;8.338;2023-09-12T02:11:07;5.82;;;4.10;;
10880;SDS011;5493;48.884;8.338;2023-09-12T02:13:34;8.38;;;4.60;;
10880;SDS011;5493;48.884;8.338;2023-09-12T02:16:00;7.68;;;4.97;;
10880;SDS011;5493;48.884;8.338;2023-09-12T02:18:28;7.97;;;4.50;;
10880;SDS011;5493;48.884;8.338;2023-09-12T02:20:55;7.30;;;4.88;;
10880;SDS011;5493;48.884;8.338;2023-09-12T02:23:24;7.18;;;4.85;;
10880;SDS011;5493;48.884;8.338;2023-09-12T02:25:50;8.30;;;4.15;;
10880;SDS011;5493;48.884;8.338;2023-09-12T02:28:17;8.07;;;5.03;;
10880;SDS011;5493;48.884;8.338;2023-09-12T02:30:43;10.48;;;4.63;;
10880;SDS011;5493;48.884;8.338;2023-09-12T02:33:10;7.32;;;5.20;;
10880;SDS011;5493;48.884;8.338;2023-09-12T02:35:36;5.93;;;4.55;;
10880;SDS011;5493;48.884;8.338;2023-09-12T02:38:04;7.97;;;4.38;;
10880;SDS011;5493;48.884;8.338;2023-09-12T02:40:31;8.02;;;4.82;;
10880;SDS011;5493;48.884;8.338;2023-09-12T02:42:57;6.80;;;4.70;;
10880;SDS011;5493;48.884;8.338;2023-09-12T02:45:24;6.93;;;4.68;;
10880;SDS011;5493;48.884;8.338;2023-09-12T02:47:50;7.53;;;4.70;;
10880;SDS011;5493;48.884;8.338;2023-09-12T02:50:16;5.60;;;4.22;;
10880;SDS011;5493;48.884;8.338;2023-09-12T02:52:43;7.07;;;4.90;;
10880;SDS011;5493;48.884;8.338;2023-09-12T02:55:11;6.32;;;4.25;;
10880;SDS011;5493;48.884;8.338;2023-09-12T02:57:38;7.22;;;4.72;;
10880;SDS011;5493;48.884;8.338;2023-09-12T03:00:05;7.78;;;5.18;;
10880;SDS011;5493;48.884;8.338;2023-09-12T03:02:34;6.68;;;4.93;;
10880;SDS011;5493;48.884;8.338;2023-09-12T03:05:01;8.13;;;4.40;;
10880;SDS011;5493;48.884;8.338;2023-09-12T03:07:28;6.82;;;4.93;;
10880;SDS011;5493;48.884;8.338;2023-09-12T03:09:55;7.15;;;4.75;;
10880;SDS011;5493;48.884;8.338;2023-09-12T03:12:23;6.85;;;5.13;;
10880;SDS011;5493;48.884;8.338;2023-09-12T03:14:49;6.85;;;4.60;;
10880;SDS011;5493;48.884;8.338;2023-09-12T03:17:16;6.07;;;4.30;;
10880;SDS011;5493;48.884;8.338;2023-09-12T03:19:42;7.70;;;4.53;;
10880;SDS011;5493;48.884;8.338;2023-09-12T03:22:09;6.30;;;5.15;;
10880;SDS011;5493;48.884;8.338;2023-09-12T03:24:35;7.13;;;4.70;;
10880;SDS011;5493;48.884;8.338;2023-09-12T03:27:02;6.20;;;4.60;;
10880;SDS011;5493;48.884;8.338;2023-09-12T03:29:30;6.85;;;4.60;;
10880;SDS011;5493;48.884;8.338;2023-09-12T03:31:57;7.75;;;4.95;;
10880;SDS011;5493;48.884;8.338;2023-09-12T03:34:23;7.35;;;4.97;;
10880;SDS011;5493;48.884;8.338;2023-09-12T03:36:50;6.25;;;4.93;;
10880;SDS011;5493;48.884;8.338;2023-09-12T03:39:16;5.75;;;5.22;;
10880;SDS011;5493;48.884;8.338;2023-09-12T03:41:43;5.50;;;4.35;;
10880;SDS011;5493;48.884;8.338;2023-09-12T03:44:09;8.23;;;5.07;;
10880;SDS011;5493;48.884;8.338;2023-09-12T03:46:37;7.20;;;5.32;;
10880;SDS011;5493;48.884;8.338;2023-09-12T03:49:03;6.22;;;4.63;;
10880;SDS011;5493;48.884;8.338;2023-09-12T03:51:30;6.00;;;4.95;;
10880;SDS011;5493;48.884;8.338;2023-09-12T03:53:56;6.38;;;5.28;;
10880;SDS011;5493;48.884;8.338;2023-09-12T03:56:23;6.43;;;4.78;;
10880;SDS011;5493;48.884;8.338;2023-09-12T03:58:49;7.22;;;4.85;;
10880;SDS011;5493;48.884;8.338;2023-09-12T04:01:16;7.07;;;5.18;;
10880;SDS011;5493;48.884;8.338;2023-09-12T04:03:44;8.10;;;4.88;;
10880;SDS011;5493;48.884;8.338;2023-09-12T04:06:12;7.65;;;5.30;;
10880;SDS011;5493;48.884;8.338;2023-09-12T04:08:39;8.18;;;5.70;;
10880;SDS011;5493;48.884;8.338;2023-09-12T04:11:05;9.30;;;4.90;;
10880;SDS011;5493;48.884;8.338;2023-09-12T04:13:32;8.77;;;5.05;;
10880;SDS011;5493;48.884;8.338;2023-09-12T04:15:58;9.38;;;4.80;;
10880;SDS011;5493;48.884;8.338;2023-09-12T04:18:25;7.35;;;5.18;;
10880;SDS011;5493;48.884;8.338;2023-09-12T04:20:53;8.57;;;5.45;;
10880;SDS011;5493;48.884;8.338;2023-09-12T04:23:22;9.20;;;5.63;;
10880;SDS011;5493;48.884;8.338;2023-09-12T04:25:51;7.45;;;5.43;;
10880;SDS011;5493;48.884;8.338;2023-09-12T04:28:17;8.50;;;4.97;;
10880;SDS011;5493;48.884;8.338;2023-09-12T04:30:44;8.93;;;5.35;;
10880;SDS011;5493;48.884;8.338;2023-09-12T04:33:10;6.57;;;5.38;;
10880;SDS011;5493;48.884;8.338;2023-09-12T04:35:37;11.38;;;5.47;;
10880;SDS011;5493;48.884;8.338;2023-09-12T04:38:05;6.20;;;5.20;;
10880;SDS011;5493;48.884;8.338;2023-09-12T04:40:31;7.82;;;5.22;;
10880;SDS011;5493;48.884;8.338;2023-09-12T04:42:58;10.43;;;5.10;;
10880;SDS011;5493;48.884;8.338;2023-09-12T04:45:24;6.65;;;5.07;;
10880;SDS011;5493;48.884;8.338;2023-09-12T04:47:51;6.72;;;5.03;;
10880;SDS011;5493;48.884;8.338;2023-09-12T04:50:17;8.10;;;5.07;;
10880;SDS011;5493;48.884;8.338;2023-09-12T04:52:44;7.43;;;5.30;;
10880;SDS011;5493;48.884;8.338;2023-09-12T04:55:11;8.07;;;4.85;;
10880;SDS011;5493;48.884;8.338;2023-09-12T04:57:38;6.85;;;4.90;;
10880;SDS011;5493;48.884;8.338;2023-09-12T05:00:05;7.47;;;5.22;;
10880;SDS011;5493;48.884;8.338;2023-09-12T05:02:33;7.50;;;5.13;;
10880;SDS011;5493;48.884;8.338;2023-09-12T05:04:59;7.03;;;5.67;;
10880;SDS011;5493;48.884;8.338;2023-09-12T05:07:26;7.32;;;5.70;;
10880;SDS011;5493;48.884;8.338;2023-09-12T05:09:52;9.80;;;5.68;;
10880;SDS011;5493;48.884;8.338;2023-09-12T05:12:20;7.25;;;5.88;;
10880;SDS011;5493;48.884;8.338;2023-09-12T05:14:46;11.80;;;5.88;;
10880;SDS011;5493;48.884;8.338;2023-09-12T05:17:13;10.52;;;5.80;;
10880;SDS011;5493;48.884;8.338;2023-09-12T05:19:40;10.73;;;5.93;;
10880;SDS011;5493;48.884;8.338;2023-09-12T05:22:06;9.27;;;6.05;;
10880;SDS011;5493;48.884;8.338;2023-09-12T05:24:32;8.68;;;5.60;;
10880;SDS011;5493;48.884;8.338;2023-09-12T05:26:59;6.80;;;5.85;;
10880;SDS011;5493;48.884;8.338;2023-09-12T05:29:27;7.40;;;5.80;;
10880;SDS011;5493;48.884;8.338;2023-09-12T05:31:53;7.40;;;5.88;;
10880;SDS011;5493;48.884;8.338;2023-09-12T05:34:20;10.98;;;5.50;;
10880;SDS011;5493;48.884;8.338;2023-09-12T05:36:46;9.90;;;5.40;;
10880;SDS011;5493;48.884;8.338;2023-09-12T05:39:13;10.25;;;5.88;;
10880;SDS011;5493;48.884;8.338;2023-09-12T05:41:39;8.35;;;5.32;;
10880;SDS011;5493;48.884;8.338;2023-09-12T05:44:06;8.45;;;5.63;;
10880;SDS011;5493;48.884;8.338;2023-09-12T05:46:34;8.27;;;5.85;;
10880;SDS011;5493;48.884;8.338;2023-09-12T05:49:00;7.53;;;6.10;;
10880;SDS011;5493;48.884;8.338;2023-09-12T05:51:27;7.30;;;5.45;;
10880;SDS011;5493;48.884;8.338;2023-09-12T05:53:53;6.93;;;5.18;;
10880;SDS011;5493;48.884;8.338;2023-09-12T05:56:20;8.02;;;5.65;;
10880;SDS011;5493;48.884;8.338;2023-09-12T05:58:46;7.97;;;5.57;;
10880;SDS011;5493;48.884;8.338;2023-09-12T06:01:15;9.55;;;6.07;;
10880;SDS011;5493;48.884;8.338;2023-09-12T06:03:43;6.30;;;5.45;;
10880;SDS011;5493;48.884;8.338;2023-09-12T06:06:10;6.40;;;5.30;;
10880;SDS011;5493;48.884;8.338;2023-09-12T06:08:37;8.07;;;5.35;;
10880;SDS011;5493;48.884;8.338;2023-09-12T06:11:03;8.02;;;5.78;;
10880;SDS011;5493;48.884;8.338;2023-09-12T06:13:30;7.18;;;5.43;;
10880;SDS011;5493;48.884;8.338;2023-09-12T06:15:57;7.40;;;5.88;;
10880;SDS011;5493;48.884;8.338;2023-09-12T06:18:24;9.25;;;5.97;;
10880;SDS011;5493;48.884;8.338;2023-09-12T06:20:54;9.18;;;6.18;;
10880;SDS011;5493;48.884;8.338;2023-09-12T06:23:21;6.63;;;5.53;;
10880;SDS011;5493;48.884;8.338;2023-09-12T06:25:48;10.23;;;6.05;;
10880;SDS011;5493;48.884;8.338;2023-09-12T06:28:23;6.88;;;5.65;;
10880;SDS011;5493;48.884;8.338;2023-09-12T06:30:50;7.55;;;5.25;;
10880;SDS011;5493;48.884;8.338;2023-09-12T06:33:17;9.48;;;5.50;;
10880;SDS011;5493;48.884;8.338;2023-09-12T06:35:43;6.82;;;5.82;;
10880;SDS011;5493;48.884;8.338;2023-09-12T06:38:15;11.95;;;6.50;;
10880;SDS011;5493;48.884;8.338;2023-09-12T06:40:42;9.35;;;6.20;;
10880;SDS011;5493;48.884;8.338;2023-09-12T06:43:09;8.45;;;6.28;;
10880;SDS011;5493;48.884;8.338;2023-09-12T06:45:35;10.82;;;6.10;;
10880;SDS011;5493;48.884;8.338;2023-09-12T06:48:03;8.95;;;6.13;;
10880;SDS011;5493;48.884;8.338;2023-09-12T06:50:30;7.90;;;5.90;;
10880;SDS011;5493;48.884;8.338;2023-09-12T06:52:57;8.25;;;6.25;;
10880;SDS011;5493;48.884;8.338;2023-09-12T06:55:24;8.43;;;6.78;;
10880;SDS011;5493;48.884;8.338;2023-09-12T06:57:51;12.88;;;6.82;;
10880;SDS011;5493;48.884;8.338;2023-09-12T07:00:18;8.45;;;5.88;;
10880;SDS011;5493;48.884;8.338;2023-09-12T07:02:45;8.90;;;6.30;;
10880;SDS011;5493;48.884;8.338;2023-09-12T07:05:11;10.95;;;6.32;;
10880;SDS011;5493;48.884;8.338;2023-09-12T07:07:38;10.07;;;6.03;;
10880;SDS011;5493;48.884;8.338;2023-09-12T07:10:05;7.10;;;6.28;;
10880;SDS011;5493;48.884;8.338;2023-09-12T07:12:33;8.40;;;6.00;;
10880;SDS011;5493;48.884;8.338;2023-09-12T07:15:00;9.32;;;5.95;;
10880;SDS011;5493;48.884;8.338;2023-09-12T07:17:27;9.52;;;5.78;;
10880;SDS011;5493;48.884;8.338;2023-09-12T07:19:53;8.15;;;6.30;;
10880;SDS011;5493;48.884;8.338;2023-09-12T07:22:20;9.00;;;6.43;;
10880;SDS011;5493;48.884;8.338;2023-09-12T07:24:46;7.05;;;5.82;;
10880;SDS011;5493;48.884;8.338;2023-09-12T07:27:13;7.75;;;6.10;;
10880;SDS011;5493;48.884;8.338;2023-09-12T07:29:41;14.30;;;6.65;;
10880;SDS011;5493;48.884;8.338;2023-09-12T07:32:07;9.90;;;6.07;;
10880;SDS011;5493;48.884;8.338;2023-09-12T07:34:34;10.88;;;6.40;;
10880;SDS011;5493;48.884;8.338;2023-09-12T07:37:00;8.80;;;5.95;;
10880;SDS011;5493;48.884;8.338;2023-09-12T07:39:27;7.82;;;5.68;;
10880;SDS011;5493;48.884;8.338;2023-09-12T07:41:54;9.70;;;6.05;;
10880;SDS011;5493;48.884;8.338;2023-09-12T07:44:21;8.40;;;5.80;;
10880;SDS011;5493;48.884;8.338;2023-09-12T07:46:48;7.60;;;6.10;;
10880;SDS011;5493;48.884;8.338;2023-09-12T07:49:15;9.55;;;6.10;;
10880;SDS011;5493;48.884;8.338;2023-09-12T07:51:41;11.93;;;6.82;;
10880;SDS011;5493;48.884;8.338;2023-09-12T07:54:08;9.98;;;5.80;;
10880;SDS011;5493;48.884;8.338;2023-09-12T07:56:34;9.15;;;6.05;;
10880;SDS011;5493;48.884;8.338;2023-09-12T07:59:01;9.23;;;6.25;;
10880;SDS011;5493;48.884;8.338;2023-09-12T08:01:28;6.65;;;5.93;;
10880;SDS011;5493;48.884;8.338;2023-09-12T08:03:56;9.27;;;5.72;;
10880;SDS011;5493;48.884;8.338;2023-09-12T08:06:22;8.57;;;6.25;;
10880;SDS011;5493;48.884;8.338;2023-09-12T08:08:50;7.95;;;6.18;;
10880;SDS011;5493;48.884;8.338;2023-09-12T08:11:16;10.73;;;6.35;;
10880;SDS011;5493;48.884;8.338;2023-09-12T08:13:43;10.70;;;6.70;;
10880;SDS011;5493;48.884;8.338;2023-09-12T08:16:12;6.72;;;5.97;;
10880;SDS011;5493;48.884;8.338;2023-09-12T08:18:38;11.13;;;5.97;;
10880;SDS011;5493;48.884;8.338;2023-09-12T08:21:06;6.68;;;5.72;;
10880;SDS011;5493;48.884;8.338;2023-09-12T08:23:33;11.02;;;5.80;;
10880;SDS011;5493;48.884;8.338;2023-09-12T08:26:01;9.48;;;5.80;;
10880;SDS011;5493;48.884;8.338;2023-09-12T08:28:28;7.07;;;5.93;;
10880;SDS011;5493;48.884;8.338;2023-09-12T08:30:54;9.13;;;6.15;;
10880;SDS011;5493;48.884;8.338;2023-09-12T08:33:21;9.38;;;6.07;;
10880;SDS011;5493;48.884;8.338;2023-09-12T08:35:48;9.95;;;6.32;;
10880;SDS011;5493;48.884;8.338;2023-09-12T08:38:16;9.90;;;6.03;;
10880;SDS011;5493;48.884;8.338;2023-09-12T08:40:47;7.25;;;5.72;;
10880;SDS011;5493;48.884;8.338;2023-09-12T08:43:14;8.07;;;5.90;;
10880;SDS011;5493;48.884;8.338;2023-09-12T08:45:41;7.10;;;6.07;;
10880;SDS011;5493;48.884;8.338;2023-09-12T08:48:09;6.93;;;5.97;;
10880;SDS011;5493;48.884;8.338;2023-09-12T08:50:37;8.43;;;6.00;;
10880;SDS011;5493;48.884;8.338;2023-09-12T08:53:04;8.10;;;6.07;;
10880;SDS011;5493;48.884;8.338;2023-09-12T08:55:32;9.23;;;5.95;;
10880;SDS011;5493;48.884;8.338;2023-09-12T08:58:00;8.48;;;5.95;;
10880;SDS011;5493;48.884;8.338;2023-09-12T09:00:29;8.95;;;5.53;;
10880;SDS011;5493;48.884;8.338;2023-09-12T09:02:56;9.13;;;5.78;;
10880;SDS011;5493;48.884;8.338;2023-09-12T09:05:23;11.15;;;6.10;;
10880;SDS011;5493;48.884;8.338;2023-09-12T09:07:51;7.93;;;5.45;;
10880;SDS011;5493;48.884;8.338;2023-09-12T09:10:18;8.65;;;5.90;;
10880;SDS011;5493;48.884;8.338;2023-09-12T09:12:50;9.43;;;5.65;;
10880;SDS011;5493;48.884;8.338;2023-09-12T09:15:20;8.48;;;5.78;;
10880;SDS011;5493;48.884;8.338;2023-09-12T09:17:48;7.13;;;5.60;;
10880;SDS011;5493;48.884;8.338;2023-09-12T09:20:26;6.00;;;5.38;;
10880;SDS011;5493;48.884;8.338;2023-09-12T09:22:58;10.10;;;5.28;;
10880;SDS011;5493;48.884;8.338;2023-09-12T09:25:25;7.43;;;5.57;;
10880;SDS011;5493;48.884;8.338;2023-09-12T09:27:53;6.20;;;5.15;;
10880;SDS011;5493;48.884;8.338;2023-09-12T09:30:37;6.53;;;5.45;;
10880;SDS011;5493;48.884;8.338;2023-09-12T09:33:05;6.35;;;5.40;;
10880;SDS011;5493;48.884;8.338;2023-09-12T09:35:32;5.78;;;5.13;;
10880;SDS011;5493;48.884;8.338;2023-09-12T09:37:59;5.63;;;4.82;;
10880;SDS011;5493;48.884;8.338;2023-09-12T09:40:25;8.25;;;5.53;;
10880;SDS011;5493;48.884;8.338;2023-09-12T09:42:54;7.13;;;4.80;;
10880;SDS011;5493;48.884;8.338;2023-09-12T09:45:22;6.32;;;5.20;;
10880;SDS011;5493;48.884;8.338;2023-09-12T09:47:49;5.63;;;5.13;;
10880;SDS011;5493;48.884;8.338;2023-09-12T09:50:16;10.80;;;5.78;;
10880;SDS011;5493;48.884;8.338;2023-09-12T09:52:43;6.55;;;5.28;;
10880;SDS011;5493;48.884;8.338;2023-09-12T09:55:12;6.95;;;5.13;;
10880;SDS011;5493;48.884;8.338;2023-09-12T09:57:39;5.70;;;5.10;;
10880;SDS011;5493;48.884;8.338;2023-09-12T10:00:08;8.90;;;5.20;;
10880;SDS011;5493;48.884;8.338;2023-09-12T10:02:40;6.63;;;5.32;;
10880;SDS011;5493;48.884;8.338;2023-09-12T10:05:07;8.07;;;5.60;;
10880;SDS011;5493;48.884;8.338;2023-09-12T10:07:36;8.68;;;6.03;;
10880;SDS011;5493;48.884;8.338;2023-09-12T10:10:04;6.75;;;5.80;;
10880;SDS011;5493;48.884;8.338;2023-09-12T10:12:31;5.43;;;4.75;;
10880;SDS011;5493;48.884;8.338;2023-09-12T10:15:01;7.20;;;5.60;;
10880;SDS011;5493;48.884;8.338;2023-09-12T10:17:35;6.28;;;5.50;;
10880;SDS011;5493;48.884;8.338;2023-09-12T10:20:03;6.13;;;5.50;;
10880;SDS011;5493;48.884;8.338;2023-09-12T10:22:36;5.43;;;4.93;;
10880;SDS011;5493;48.884;8.338;2023-09-12T10:25:05;6.30;;;4.55;;
10880;SDS011;5493;48.884;8.338;2023-09-12T10:27:33;9.38;;;4.82;;
10880;SDS011;5493;48.884;8.338;2023-09-12T10:30:00;5.75;;;4.80;;
10880;SDS011;5493;48.884;8.338;2023-09-12T10:32:31;6.22;;;4.95;;
10880;SDS011;5493;48.884;8.338;2023-09-12T10:34:59;5.50;;;5.10;;
10880;SDS011;5493;48.884;8.338;2023-09-12T10:37:26;7.28;;;5.20;;
10880;SDS011;5493;48.884;8.338;2023-09-12T10:39:55;5.72;;;5.22;;
10880;SDS011;5493;48.884;8.338;2023-09-12T10:42:22;7.78;;;5.00;;
10880;SDS011;5493;48.884;8.338;2023-09-12T10:44:50;6.97;;;4.95;;
10880;SDS011;5493;48.884;8.338;2023-09-12T10:47:17;5.57;;;4.43;;
10880;SDS011;5493;48.884;8.338;2023-09-12T10:49:46;4.82;;;4.32;;
10880;SDS011;5493;48.884;8.338;2023-09-12T10:52:23;6.13;;;4.50;;
10880;SDS011;5493;48.884;8.338;2023-09-12T10:54:50;7.53;;;4.50;;
10880;SDS011;5493;48.884;8.338;2023-09-12T10:57:17;5.13;;;4.63;;
10880;SDS011;5493;48.884;8.338;2023-09-12T11:02:36;7.47;;;4.97;;
10880;SDS011;5493;48.884;8.338;2023-09-12T11:05:06;6.90;;;4.63;;
10880;SDS011;5493;48.884;8.338;2023-09-12T11:07:55;7.35;;;4.75;;
10880;SDS011;5493;48.884;8.338;2023-09-12T11:10:23;7.15;;;4.43;;
10880;SDS011;5493;48.884;8.338;2023-09-12T11:12:50;7.15;;;5.05;;
10880;SDS011;5493;48.884;8.338;2023-09-12T11:15:19;5.90;;;4.50;;
10880;SDS011;5493;48.884;8.338;2023-09-12T11:17:47;5.97;;;4.28;;
10880;SDS011;5493;48.884;8.338;2023-09-12T11:20:16;6.55;;;4.38;;
10880;SDS011;5493;48.884;8.338;2023-09-12T11:22:43;5.55;;;4.70;;
10880;SDS011;5493;48.884;8.338;2023-09-12T11:25:18;6.75;;;4.53;;
10880;SDS011;5493;48.884;8.338;2023-09-12T11:28:01;7.78;;;4.93;;
10880;SDS011;5493;48.884;8.338;2023-09-12T11:30:29;5.97;;;4.20;;
10880;SDS011;5493;48.884;8.338;2023-09-12T11:32:57;5.93;;;4.43;;
10880;SDS011;5493;48.884;8.338;2023-09-12T11:35:26;6.03;;;4.18;;
10880;SDS011;5493;48.884;8.338;2023-09-12T11:37:54;6.13;;;4.47;;
10880;SDS011;5493;48.884;8.338;2023-09-12T11:40:22;4.85;;;4.30;;
10880;SDS011;5493;48.884;8.338;2023-09-12T11:42:50;8.98;;;4.40;;
10880;SDS011;5493;48.884;8.338;2023-09-12T11:45:17;14.68;;;4.90;;
10880;SDS011;5493;48.884;8.338;2023-09-12T11:47:44;4.53;;;4.07;;
10880;SDS011;5493;48.884;8.338;2023-09-12T11:50:26;4.90;;;4.43;;
10880;SDS011;5493;48.884;8.338;2023-09-12T11:53:00;4.78;;;4.32;;
10880;SDS011;5493;48.884;8.338;2023-09-12T11:55:30;4.45;;;4.05;;
10880;SDS011;5493;48.884;8.338;2023-09-12T11:57:57;4.53;;;4.13;;
10880;SDS011;5493;48.884;8.338;2023-09-12T12:00:23;6.88;;;4.30;;
10880;SDS011;5493;48.884;8.338;2023-09-12T12:02:51;5.20;;;3.85;;
10880;SDS011;5493;48.884;8.338;2023-09-12T12:05:18;4.20;;;3.80;;
10880;SDS011;5493;48.884;8.338;2023-09-12T12:07:47;4.95;;;3.53;;
10880;SDS011;5493;48.884;8.338;2023-09-12T12:10:14;4.93;;;4.18;;
10880;SDS011;5493;48.884;8.338;2023-09-12T12:12:41;10.30;;;4.05;;
10880;SDS011;5493;48.884;8.338;2023-09-12T12:15:09;4.95;;;4.15;;
10880;SDS011;5493;48.884;8.338;2023-09-12T12:17:36;4.72;;;3.85;;
10880;SDS011;5493;48.884;8.338;2023-09-12T12:20:06;5.40;;;4.15;;
10880;SDS011;5493;48.884;8.338;2023-09-12T12:22:35;4.80;;;3.38;;
10880;SDS011;5493;48.884;8.338;2023-09-12T12:25:06;5.25;;;3.72;;
10880;SDS011;5493;48.884;8.338;2023-09-12T12:27:34;4.95;;;4.00;;
10880;SDS011;5493;48.884;8.338;2023-09-12T12:30:02;4.82;;;3.75;;
10880;SDS011;5493;48.884;8.338;2023-09-12T12:32:29;4.57;;;3.70;;
10880;SDS011;5493;48.884;8.338;2023-09-12T12:34:55;4.88;;;4.00;;
10880;SDS011;5493;48.884;8.338;2023-09-12T12:37:27;5.43;;;3.63;;
10880;SDS011;5493;48.884;8.338;2023-09-12T12:39:56;4.30;;;3.90;;
10880;SDS011;5493;48.884;8.338;2023-09-12T12:42:25;4.50;;;3.67;;
10880;SDS011;5493;48.884;8.338;2023-09-12T12:44:52;4.85;;;3.85;;
10880;SDS011;5493;48.884;8.338;2023-09-12T12:47:20;4.85;;;4.00;;
10880;SDS011;5493;48.884;8.338;2023-09-12T12:49:49;4.78;;;4.07;;
10880;SDS011;5493;48.884;8.338;2023-09-12T12:52:16;4.78;;;3.80;;
10880;SDS011;5493;48.884;8.338;2023-09-12T12:54:47;5.32;;;3.92;;
10880;SDS011;5493;48.884;8.338;2023-09-12T12:57:16;5.47;;;3.97;;
10880;SDS011;5493;48.884;8.338;2023-09-12T12:59:47;3.63;;;3.30;;
10880;SDS011;5493;48.884;8.338;2023-09-12T13:02:13;9.63;;;3.83;;
10880;SDS011;5493;48.884;8.338;2023-09-12T13:04:40;8.38;;;4.00;;
10880;SDS011;5493;48.884;8.338;2023-09-12T13:07:07;4.22;;;3.60;;
10880;SDS011;5493;48.884;8.338;2023-09-12T13:09:33;4.10;;;3.67;;
10880;SDS011;5493;48.884;8.338;2023-09-12T13:12:00;3.53;;;3.22;;
10880;SDS011;5493;48.884;8.338;2023-09-12T13:14:26;5.22;;;3.80;;
10880;SDS011;5493;48.884;8.338;2023-09-12T13:16:57;3.65;;;3.35;;
10880;SDS011;5493;48.884;8.338;2023-09-12T13:19:24;5.50;;;4.00;;
10880;SDS011;5493;48.884;8.338;2023-09-12T13:21:50;4.07;;;3.60;;
10880;SDS011;5493;48.884;8.338;2023-09-12T13:24:17;5.20;;;3.97;;
10880;SDS011;5493;48.884;8.338;2023-09-12T13:26:43;5.65;;;3.75;;
10880;SDS011;5493;48.884;8.338;2023-09-12T13:29:10;7.38;;;3.85;;
10880;SDS011;5493;48.884;8.338;2023-09-12T13:31:36;5.18;;;3.75;;
10880;SDS011;5493;48.884;8.338;2023-09-12T13:34:04;4.28;;;3.78;;
10880;SDS011;5493;48.884;8.338;2023-09-12T13:36:31;4.18;;;3.75;;
10880;SDS011;5493;48.884;8.338;2023-09-12T13:38:57;5.32;;;3.70;;
10880;SDS011;5493;48.884;8.338;2023-09-12T13:41:24;5.15;;;3.70;;
10880;SDS011;5493;48.884;8.338;2023-09-12T13:43:50;5.03;;;3.63;;
10880;SDS011;5493;48.884;8.338;2023-09-12T13:46:17;4.80;;;3.67;;
10880;SDS011;5493;48.884;8.338;2023-09-12T13:48:43;5.18;;;3.90;;
10880;SDS011;5493;48.884;8.338;2023-09-12T13:51:11;6.55;;;3.90;;
10880;SDS011;5493;48.884;8.338;2023-09-12T13:53:38;5.20;;;3.83;;
10880;SDS011;5493;48.884;8.338;2023-09-12T13:56:04;4.28;;;3.83;;
10880;SDS011;5493;48.884;8.338;2023-09-12T13:58:31;4.28;;;3.80;;
10880;SDS011;5493;48.884;8.338;2023-09-12T14:00:58;5.28;;;3.63;;
10880;SDS011;5493;48.884;8.338;2023-09-12T14:03:24;7.80;;;3.95;;
10880;SDS011;5493;48.884;8.338;2023-09-12T14:05:51;5.00;;;4.10;;
10880;SDS011;5493;48.884;8.338;2023-09-12T14:08:19;4.07;;;3.60;;
10880;SDS011;5493;48.884;8.338;2023-09-12T14:10:45;4.15;;;3.45;;
10880;SDS011;5493;48.884;8.338;2023-09-12T14:13:12;7.60;;;3.85;;
10880;SDS011;5493;48.884;8.338;2023-09-12T14:15:38;5.07;;;3.80;;
10880;SDS011;5493;48.884;8.338;2023-09-12T14:18:05;4.38;;;3.97;;
10880;SDS011;5493;48.884;8.338;2023-09-12T14:20:31;5.57;;;3.80;;
10880;SDS011;5493;48.884;8.338;2023-09-12T14:22:58;4.45;;;3.65;;
10880;SDS011;5493;48.884;8.338;2023-09-12T14:25:26;6.38;;;3.78;;
10880;SDS011;5493;48.884;8.338;2023-09-12T14:27:52;4.82;;;3.45;;
10880;SDS011;5493;48.884;8.338;2023-09-12T14:30:19;3.88;;;3.45;;
10880;SDS011;5493;48.884;8.338;2023-09-12T14:32:47;3.70;;;3.40;;
10880;SDS011;5493;48.884;8.338;2023-09-12T14:35:13;5.30;;;3.20;;
10880;SDS011;5493;48.884;8.338;2023-09-12T14:37:40;4.18;;;3.35;;
10880;SDS011;5493;48.884;8.338;2023-09-12T14:40:07;3.50;;;3.20;;
10880;SDS011;5493;48.884;8.338;2023-09-12T14:42:37;7.10;;;3.70;;
10880;SDS011;5493;48.884;8.338;2023-09-12T14:45:04;5.68;;;3.70;;
10880;SDS011;5493;48.884;8.338;2023-09-12T14:47:32;4.95;;;3.70;;
10880;SDS011;5493;48.884;8.338;2023-09-12T14:49:59;4.13;;;3.70;;
10880;SDS011;5493;48.884;8.338;2023-09-12T14:52:25;5.47;;;3.97;;
10880;SDS011;5493;48.884;8.338;2023-09-12T14:54:52;5.45;;;3.63;;
10880;SDS011;5493;48.884;8.338;2023-09-12T14:57:19;4.20;;;3.50;;
10880;SDS011;5493;48.884;8.338;2023-09-12T14:59:48;5.65;;;3.65;;
10880;SDS011;5493;48.884;8.338;2023-09-12T15:02:16;4.03;;;3.50;;
10880;SDS011;5493;48.884;8.338;2023-09-12T15:04:42;3.78;;;3.47;;